EDT,Max TemperatureF,Mean TemperatureF,Min TemperatureF,Max Dew PointF,MeanDew PointF,Min DewpointF,Max Humidity, Mean Humidity, Min Humidity, Max Sea Level PressureIn, Mean Sea Level PressureIn, Min Sea Level PressureIn, Max VisibilityMiles, Mean VisibilityMiles, Min VisibilityMiles, Max Wind SpeedMPH, Mean Wind SpeedMPH, Max Gust SpeedMPH,PrecipitationIn, CloudCover, Events, WindDirDegrees
2011-10-1,70,66,59,64,51,40,100,65,39,29.93,29.80,29.69,10,10,9,20,13,24,0.00,1,,300
2011-10-2,66,60,53,46,41,38,74,53,37,30.06,29.97,29.92,10,10,10,20,14,24,0.00,1,,292
2011-10-3,70,60,50,53,42,35,80,53,29,30.16,30.09,30.04,10,10,10,18,8,24,0.00,0,,251
2011-10-4,72,63,55,53,49,45,84,62,41,30.20,30.16,30.12,10,10,2,16,9,21,0.00,1,,311
2011-10-5,75,68,60,62,55,52,93,68,43,30.24,30.20,30.16,10,10,3,12,7,,0.00,0,,333
2011-10-6,75,69,63,63,58,51,96,72,55,30.35,30.28,30.22,10,9,2,18,10,26,0.00,0,,32
2011-10-7,73,68,64,61,58,54,79,70,57,30.44,30.38,30.32,10,10,10,18,12,24,0.00,0,,51
2011-10-8,75,68,64,63,60,57,87,74,61,30.46,30.42,30.39,10,10,10,18,12,26,0.00,0,,42
2011-10-9,75,70,68,66,65,63,90,82,73,30.40,30.34,30.28,10,10,8,20,16,25,0.00,1,,46
2011-10-10,73,72,70,70,68,65,93,90,84,30.27,30.16,30.06,10,8,7,16,13,21,0.00,2,Rain,53
2011-10-11,73,70,66,71,66,59,93,86,66,30.05,29.98,29.92,10,7,2,21,13,33,0.53,6,Rain,76
2011-10-12,84,76,71,77,71,66,93,85,74,29.92,29.84,29.78,10,7,2,13,8,20,0.15,5,Rain,114
2011-10-13,84,76,71,73,70,65,94,81,63,29.80,29.73,29.66,10,8,1,18,8,28,0.07,2,,191
2011-10-14,77,69,61,68,59,50,93,69,46,29.87,29.70,29.62,10,9,6,20,10,32,0.01,1,,233
2011-10-15,80,68,57,55,51,45,81,56,30,30.02,29.94,29.88,10,10,10,16,8,26,0.00,0,,237
2011-10-16,77,68,60,52,46,33,70,51,22,30.15,30.07,30.03,10,10,10,10,7,,0.00,0,,247
2011-10-17,86,72,60,67,59,50,90,66,32,30.02,29.95,29.89,10,10,2,15,8,20,0.00,0,,232
2011-10-18,84,75,66,72,67,62,94,80,49,29.94,29.84,29.67,10,8,2,15,11,24,0.32,2,,147
2011-10-19,79,75,70,76,72,61,100,94,73,29.65,29.48,29.33,10,5,1,21,11,29,2.04,6,Rain,174
2011-10-20,66,59,52,53,45,41,74,60,43,29.99,29.80,29.55,10,10,10,25,18,34,0.00,0,,229
2011-10-21,66,57,48,49,45,40,86,64,43,30.09,30.06,30.00,10,10,7,10,6,,0.00,0,,213
2011-10-22,69,62,55,55,53,50,84,70,58,30.11,30.08,30.06,10,10,8,14,8,,0.00,2,,10
2011-10-23,69,66,62,58,54,52,84,69,58,30.13,30.10,30.07,10,10,8,14,12,,0.00,3,,39
2011-10-24,71,66,60,59,57,55,88,78,61,30.09,30.04,29.98,10,9,2,14,10,21,0.00,5,,9
2011-10-25,70,62,55,55,47,39,83,59,33,30.24,30.17,30.08,10,9,7,17,9,26,0.00,0,,321
2011-10-26,75,64,54,56,50,40,88,66,28,30.19,30.08,29.97,10,9,2,21,8,28,0.00,0,,217
2011-10-27,81,70,60,61,57,52,86,66,39,29.96,29.88,29.80,10,9,8,24,10,31,0.00,0,,221
2011-10-28,69,63,57,58,51,45,83,72,61,30.11,30.04,29.91,10,9,2,20,15,31,0.00,8,,24
2011-10-29,66,57,46,63,53,37,94,80,61,30.07,29.88,29.79,10,8,4,28,13,38,0.00,6,,332
2011-10-30,57,51,45,39,35,29,68,55,36,30.37,30.27,30.10,10,10,10,23,17,30,0.00,0,,9
2011-10-31,63,56,50,57,50,40,90,75,62,30.36,30.21,30.07,10,9,4,26,10,33,0.04,3,Rain,31